Ikan Bagat — 3EYX8 — position and weather

sailwx.info

Track history (hours):
 
Tides and Currents Weather Stations Pressure Air Temp Water Temp Dewpoint Dewpoint Depression Visibility Wind Speed Wind Dir Waves Ship Positions

Ikan Bagat

Last reported at 2015-Jul-30 16:18 UTC. Time now 2015-Aug-29 06:09 UTC.
Position N 03°22' E 100°28'.
Warning: this ship's position is 29 days out of date.

Length 229 m; draft 15 m.

Type: Ship. MMSI: 354375000.

Date/timePositionNaut miles runAvg speedWind from/ knotsBaromVisibWave heightAir tempDewpointWater temp
2015-Jul-30 16:18N 03°22' E 100°28'1911.1
2015-Jul-30 14:33N 03°08' E 100°42'2311.5
2015-Jul-30 12:33N 02°52' E 100°58'28 9.2
2015-Jul-30 09:33N 02°38' E 101°22'9 8.9
2015-Jul-30 08:33N 02°34' E 101°30'2010.0
2015-Jul-30 06:33N 02°22' E 101°46'14210.0
2015-Jul-29 16:23N 01°11' E 103°48'5 6.3
2015-Jul-29 15:33N 01°13' E 103°53'6 5.6
2015-Jul-29 14:33N 01°17' E 103°57'0 0.3
2015-Jul-29 13:27N 01°17' E 103°57'0 0.0
2015-Jul-29 12:30N 01°17' E 103°57'0 0.0
2015-Jul-29 11:24N 01°17' E 103°57'0 0.1
2015-Jul-29 10:30N 01°17' E 103°57'0 0.0
2015-Jul-29 09:21N 01°17' E 103°57'0 0.0
2015-Jul-29 08:18N 01°17' E 103°57'0 0.0
2015-Jul-29 07:12N 01°17' E 103°57'0 0.0
2015-Jul-29 06:33N 01°17' E 103°57'0 0.0
2015-Jul-29 05:24N 01°17' E 103°57'0 0.0
2015-Jul-29 04:27N 01°17' E 103°57'1 1.2
2015-Jul-29 03:33N 01°16' E 103°56'5 4.9
2015-Jul-29 02:33N 01°16' E 104°01'7 6.4
2015-Jul-29 01:32N 01°17' E 104°08'  
Track history (hours):
 
Tides and Currents Weather Stations Pressure Air Temp Water Temp Dewpoint Dewpoint Depression Visibility Wind Speed Wind Dir Waves Ship Positions

Ikan Bagat

Last reported at 2015-Jul-30 16:18 UTC. Time now 2015-Aug-29 06:09 UTC.
Position N 03°22' E 100°28'.
Warning: this ship's position is 29 days out of date.

Length 229 m; draft 15 m.

Type: Ship. MMSI: 354375000.

Date/timePositionNaut miles runAvg speedWind from/ knotsBaromVisibWave heightAir tempDewpointWater temp
2015-Jul-30 16:18N 03°22' E 100°28'1911.1
2015-Jul-30 14:33N 03°08' E 100°42'2311.5
2015-Jul-30 12:33N 02°52' E 100°58'28 9.2
2015-Jul-30 09:33N 02°38' E 101°22'9 8.9
2015-Jul-30 08:33N 02°34' E 101°30'2010.0
2015-Jul-30 06:33N 02°22' E 101°46'14210.0
2015-Jul-29 16:23N 01°11' E 103°48'5 6.3
2015-Jul-29 15:33N 01°13' E 103°53'6 5.6
2015-Jul-29 14:33N 01°17' E 103°57'0 0.3
2015-Jul-29 13:27N 01°17' E 103°57'0 0.0
2015-Jul-29 12:30N 01°17' E 103°57'0 0.0
2015-Jul-29 11:24N 01°17' E 103°57'0 0.1
2015-Jul-29 10:30N 01°17' E 103°57'0 0.0
2015-Jul-29 09:21N 01°17' E 103°57'0 0.0
2015-Jul-29 08:18N 01°17' E 103°57'0 0.0
2015-Jul-29 07:12N 01°17' E 103°57'0 0.0
2015-Jul-29 06:33N 01°17' E 103°57'0 0.0
2015-Jul-29 05:24N 01°17' E 103°57'0 0.0
2015-Jul-29 04:27N 01°17' E 103°57'1 1.2
2015-Jul-29 03:33N 01°16' E 103°56'5 4.9
2015-Jul-29 02:33N 01°16' E 104°01'7 6.4
2015-Jul-29 01:32N 01°17' E 104°08'  

Dump ship's entire track history